createdAt,value
2017-11-18T00:02:15.648Z,66.13
2017-11-18T00:04:43.930Z,76.03
2017-11-18T00:07:12.250Z,55.33
2017-11-18T00:09:39.886Z,72.10
2017-11-18T00:12:07.450Z,67.60
2017-11-18T00:14:34.986Z,70.43
2017-11-18T00:17:03.269Z,72.67
2017-11-18T00:19:30.812Z,64.87
2017-11-18T00:21:59.112Z,79.30
2017-11-18T00:24:26.658Z,86.80
2017-11-18T00:26:54.935Z,84.37
2017-11-18T00:29:22.510Z,73.37
2017-11-18T00:31:50.054Z,74.97
2017-11-18T00:34:17.574Z,78.90
2017-11-18T00:36:45.121Z,82.80
2017-11-18T00:39:12.668Z,77.03
2017-11-18T00:41:40.218Z,79.57
2017-11-18T00:44:07.740Z,72.93
2017-11-18T00:46:35.237Z,78.00
2017-11-18T00:49:02.762Z,69.27
2017-11-18T00:51:30.286Z,87.13
2017-11-18T00:53:57.813Z,78.13
2017-11-18T00:56:25.334Z,81.53
2017-11-18T00:58:52.834Z,72.27
2017-11-18T01:01:20.375Z,72.00
2017-11-18T01:03:47.906Z,74.10
2017-11-18T01:06:15.409Z,71.50
2017-11-18T01:08:42.950Z,74.80
2017-11-18T01:11:10.587Z,85.63
2017-11-18T01:13:38.148Z,89.23
2017-11-18T01:16:06.249Z,81.53
2017-11-18T01:18:33.778Z,82.13
2017-11-18T01:21:01.288Z,71.03
2017-11-18T01:23:28.893Z,71.53
2017-11-18T01:25:56.451Z,76.03
2017-11-18T01:28:24.009Z,79.87
2017-11-18T01:30:51.580Z,79.83
2017-11-18T01:33:19.090Z,75.50
2017-11-18T01:35:46.611Z,77.87
2017-11-18T01:38:14.136Z,76.67
2017-11-18T01:40:41.696Z,71.73
2017-11-18T01:43:09.229Z,75.97
2017-11-18T01:45:37.505Z,75.03
2017-11-18T01:48:05.813Z,81.10
2017-11-18T01:50:33.342Z,87.10
2017-11-18T01:53:01.609Z,81.67
2017-11-18T01:55:29.161Z,80.90
2017-11-18T01:57:56.658Z,75.70
2017-11-18T02:00:24.169Z,73.93
2017-11-18T02:02:52.476Z,75.47
2017-11-18T02:05:20.738Z,71.30
2017-11-18T02:07:49.054Z,77.43
2017-11-18T02:10:16.601Z,83.17
2017-11-18T02:12:44.109Z,73.37
2017-11-18T02:15:11.713Z,74.83
2017-11-18T02:17:39.285Z,79.40
2017-11-18T02:20:06.786Z,67.17
2017-11-18T02:22:34.315Z,78.33
2017-11-18T02:25:01.839Z,80.20
2017-11-18T02:27:29.418Z,76.30
2017-11-18T02:29:56.918Z,73.80
2017-11-18T02:32:24.514Z,77.10
2017-11-18T02:34:52.050Z,76.20
2017-11-18T02:37:20.319Z,74.33
2017-11-18T02:39:48.633Z,78.30
2017-11-18T02:42:16.185Z,56.93
2017-11-18T02:44:43.746Z,78.33
2017-11-18T02:47:11.243Z,64.93
2017-11-18T02:49:38.778Z,75.20
2017-11-18T02:52:06.276Z,79.20
2017-11-18T02:54:33.770Z,74.87
2017-11-18T02:57:01.333Z,67.77
2017-11-18T02:59:28.829Z,71.90
2017-11-18T03:01:56.376Z,73.50
2017-11-18T03:04:23.873Z,63.90
2017-11-18T03:06:51.375Z,71.03
2017-11-18T03:09:18.898Z,74.40
2017-11-18T03:11:47.179Z,71.80
2017-11-18T03:14:15.470Z,83.80
2017-11-18T03:16:42.974Z,67.80
2017-11-18T03:19:10.513Z,69.23
2017-11-18T03:21:38.047Z,53.23
2017-11-18T03:24:05.595Z,64.73
2017-11-18T03:26:33.162Z,66.97
2017-11-18T03:29:00.720Z,73.93
2017-11-18T03:31:28.245Z,67.97
2017-11-18T03:33:56.512Z,68.60
2017-11-18T03:36:24.034Z,63.97
2017-11-18T03:38:51.541Z,67.17
2017-11-18T03:41:19.806Z,63.00
2017-11-18T03:43:47.332Z,62.47
2017-11-18T03:46:14.834Z,64.33
2017-11-18T03:48:43.144Z,70.60
2017-11-18T03:51:10.641Z,64.17
2017-11-18T03:53:38.141Z,53.60
2017-11-18T03:56:05.671Z,53.10
2017-11-18T03:58:33.174Z,59.57
2017-11-18T04:01:00.705Z,51.43
2017-11-18T04:03:28.967Z,58.33
2017-11-18T04:05:57.241Z,55.73
2017-11-18T04:08:24.766Z,60.60
2017-11-18T04:10:52.266Z,54.60
2017-11-18T04:13:20.560Z,55.10
2017-11-18T04:15:48.063Z,49.80
2017-11-18T04:18:15.562Z,59.83
2017-11-18T04:20:43.855Z,48.03
2017-11-18T04:23:11.401Z,62.50
2017-11-18T04:25:39.705Z,47.87
2017-11-18T04:28:07.236Z,64.93
2017-11-18T04:30:34.763Z,64.57
2017-11-18T04:33:03.040Z,55.10
2017-11-18T04:35:31.329Z,44.93
2017-11-18T04:37:59.596Z,51.50
2017-11-18T04:40:27.178Z,52.70
2017-11-18T04:42:54.724Z,52.00
2017-11-18T04:45:23.958Z,56.30
2017-11-18T04:47:51.500Z,44.13
2017-11-18T04:50:19.026Z,54.50
2017-11-18T04:52:46.530Z,65.23
2017-11-18T04:55:14.048Z,59.33
2017-11-18T04:57:42.319Z,59.67
2017-11-18T05:00:10.613Z,59.60
2017-11-18T05:02:38.130Z,66.00
2017-11-18T05:05:05.743Z,66.83
2017-11-18T05:07:33.250Z,52.83
2017-11-18T05:10:00.764Z,56.67
2017-11-18T05:12:28.294Z,62.73
2017-11-18T05:14:56.562Z,50.00
2017-11-18T05:17:24.858Z,46.10
2017-11-18T05:19:52.392Z,58.90
2017-11-18T05:22:20.702Z,59.53
2017-11-18T05:24:48.234Z,57.27
2017-11-18T05:27:16.517Z,61.03
2017-11-18T05:29:44.813Z,51.50
2017-11-18T05:32:12.318Z,65.93
2017-11-18T05:34:39.918Z,63.33
2017-11-18T05:37:07.578Z,56.03
2017-11-18T05:39:35.134Z,56.77
2017-11-18T05:42:02.710Z,55.27
2017-11-18T05:44:30.221Z,65.40
2017-11-18T05:46:57.805Z,65.87
2017-11-18T05:49:25.378Z,61.97
2017-11-18T05:51:52.909Z,58.17
2017-11-18T05:54:21.199Z,60.90
2017-11-18T05:56:48.691Z,58.20
2017-11-18T05:59:16.210Z,54.33
2017-11-18T06:01:44.480Z,51.50
2017-11-18T06:04:12.767Z,56.00
2017-11-18T06:06:40.334Z,49.43
2017-11-18T06:09:07.885Z,54.43
2017-11-18T06:11:35.394Z,45.90
2017-11-18T06:14:02.907Z,50.43
2017-11-18T06:16:30.462Z,52.40
2017-11-18T06:18:57.954Z,47.43
2017-11-18T06:21:25.497Z,38.37
2017-11-18T06:23:53.042Z,54.03
2017-11-18T06:26:20.605Z,43.87
2017-11-18T06:28:48.129Z,37.80
2017-11-18T06:31:16.399Z,36.63
2017-11-18T06:33:44.706Z,25.80
2017-11-18T06:36:12.262Z,24.83
2017-11-18T06:38:39.794Z,18.17
2017-11-18T06:41:08.117Z,15.80
2017-11-18T06:43:35.629Z,21.43
2017-11-18T06:46:03.931Z,21.87
2017-11-18T06:48:31.460Z,21.37
2017-11-18T06:50:59.762Z,21.63
2017-11-18T06:53:27.264Z,20.13
2017-11-18T06:55:54.794Z,24.10
2017-11-18T06:58:22.299Z,26.90
2017-11-18T07:00:49.802Z,25.73
2017-11-18T07:03:17.339Z,18.87
2017-11-18T07:05:44.922Z,15.47
2017-11-18T07:08:12.450Z,17.90
2017-11-18T07:10:40.717Z,15.57
2017-11-18T07:13:09.087Z,13.13
2017-11-18T07:15:36.579Z,15.20
2017-11-18T07:18:04.097Z,15.00
2017-11-18T07:20:31.625Z,14.97
2017-11-18T07:22:59.157Z,12.73
2017-11-18T07:25:26.694Z,15.53
2017-11-18T07:27:54.274Z,15.47
2017-11-18T07:30:21.810Z,18.60
2017-11-18T07:32:50.087Z,17.90
2017-11-18T07:35:18.347Z,16.67
2017-11-18T07:37:46.653Z,17.50
2017-11-18T07:40:14.157Z,17.23
2017-11-18T07:42:41.730Z,14.60
2017-11-18T07:45:09.227Z,19.23
2017-11-18T07:47:36.786Z,15.30
2017-11-18T07:50:04.337Z,13.87
2017-11-18T07:52:31.843Z,15.27
2017-11-18T07:54:59.472Z,16.80
2017-11-18T07:57:26.987Z,15.30
2017-11-18T07:59:55.497Z,14.83
2017-11-18T08:02:23.021Z,16.23
2017-11-18T08:04:50.630Z,17.13
2017-11-18T08:07:18.165Z,14.10
2017-11-18T08:09:45.658Z,16.20
2017-11-18T08:12:13.183Z,15.90
2017-11-18T08:14:40.710Z,18.57
2017-11-18T08:17:08.211Z,14.30
2017-11-18T08:19:35.906Z,14.63
2017-11-18T08:22:03.485Z,14.30
2017-11-18T08:24:31.042Z,17.53
2017-11-18T08:26:58.574Z,14.63
2017-11-18T08:29:26.137Z,15.10
2017-11-18T08:31:53.873Z,14.47
2017-11-18T08:34:21.405Z,12.00
2017-11-18T08:36:49.770Z,15.10
2017-11-18T08:39:18.164Z,11.10
2017-11-18T08:41:45.752Z,13.90
2017-11-18T08:44:13.312Z,10.80
2017-11-18T08:46:40.830Z,11.07
2017-11-18T08:49:09.215Z,10.57
2017-11-18T08:51:37.291Z,10.00
2017-11-18T08:54:04.889Z,10.93
2017-11-18T08:56:32.454Z,9.43
2017-11-18T08:59:00.102Z,10.00
2017-11-18T09:01:27.631Z,9.33
2017-11-18T09:03:55.205Z,10.20
2017-11-18T09:06:22.837Z,10.00
2017-11-18T09:08:51.139Z,12.57
2017-11-18T09:11:18.686Z,8.90
2017-11-18T09:13:46.268Z,10.50
2017-11-18T09:16:13.880Z,8.53
2017-11-18T09:18:42.201Z,11.70
2017-11-18T09:21:09.691Z,10.50
2017-11-18T09:23:37.515Z,11.93
2017-11-18T09:26:05.057Z,9.00
2017-11-18T09:28:32.606Z,8.43
2017-11-18T09:31:01.011Z,9.10
2017-11-18T09:33:28.580Z,11.60
2017-11-18T09:35:56.090Z,10.43
2017-11-18T09:38:24.396Z,9.20
2017-11-18T09:40:51.987Z,8.87
2017-11-18T09:43:19.514Z,10.40
2017-11-18T09:45:47.042Z,10.30
2017-11-18T09:48:15.317Z,9.83
2017-11-18T09:50:42.874Z,7.77
2017-11-18T09:53:11.160Z,7.87
2017-11-18T09:55:38.717Z,6.83
2017-11-18T09:58:06.990Z,6.33
2017-11-18T10:00:35.265Z,6.33
2017-11-18T10:03:03.567Z,6.50
2017-11-18T10:05:31.137Z,6.40
2017-11-18T10:07:58.820Z,7.60
2017-11-18T10:10:26.358Z,6.27
2017-11-18T10:12:53.867Z,5.67
2017-11-18T10:15:22.239Z,5.37
2017-11-18T10:17:50.503Z,7.00
2017-11-18T10:20:18.794Z,7.30
2017-11-18T10:22:47.058Z,6.43
2017-11-18T10:25:14.599Z,5.70
2017-11-18T10:27:42.138Z,5.27
2017-11-18T10:30:09.979Z,7.00
2017-11-18T10:32:37.569Z,4.87
2017-11-18T10:35:05.086Z,6.13
2017-11-18T10:37:32.685Z,6.13
2017-11-18T10:40:00.306Z,6.20
2017-11-18T10:42:27.897Z,6.03
2017-11-18T10:44:55.438Z,6.70
2017-11-18T10:47:22.950Z,7.17
2017-11-18T10:49:51.250Z,7.70
2017-11-18T10:52:19.553Z,6.90
2017-11-18T10:54:47.138Z,5.70
2017-11-18T10:57:14.652Z,6.00
2017-11-18T10:59:42.251Z,6.70
2017-11-18T11:02:10.574Z,6.17
2017-11-18T11:04:38.848Z,8.10
2017-11-18T11:07:07.245Z,7.30
2017-11-18T11:09:34.764Z,6.90
2017-11-18T11:12:02.337Z,7.87
2017-11-18T11:14:30.660Z,7.30
2017-11-18T11:16:58.226Z,6.33
2017-11-18T11:19:25.833Z,7.70
2017-11-18T11:21:53.380Z,7.10
2017-11-18T11:24:21.667Z,6.60
2017-11-18T11:26:50.082Z,7.50
2017-11-18T11:29:17.626Z,6.73
2017-11-18T11:31:45.134Z,6.23
2017-11-18T11:34:14.259Z,6.40
2017-11-18T11:36:41.828Z,7.13
2017-11-18T11:39:09.352Z,6.60
2017-11-18T11:41:37.700Z,5.73
2017-11-18T11:44:05.233Z,7.63
2017-11-18T11:46:32.830Z,4.33
2017-11-18T11:49:00.387Z,6.43
2017-11-18T11:51:27.952Z,5.40
2017-11-18T11:53:55.476Z,5.30
2017-11-18T11:56:23.035Z,5.50
2017-11-18T11:58:50.601Z,6.80
2017-11-18T12:01:18.236Z,5.27
2017-11-18T12:03:45.742Z,5.70
2017-11-18T12:06:13.239Z,4.40
2017-11-18T12:08:41.686Z,4.13
2017-11-18T12:11:09.210Z,3.90
2017-11-18T12:13:36.743Z,4.87
2017-11-18T12:16:04.254Z,4.73
2017-11-18T12:18:31.797Z,5.30
2017-11-18T12:20:59.387Z,4.43
2017-11-18T12:23:27.719Z,6.67
2017-11-18T12:25:55.230Z,8.90
2017-11-18T12:28:23.515Z,6.40
2017-11-18T12:30:51.831Z,5.63
2017-11-18T12:33:19.363Z,4.27
2017-11-18T12:35:46.875Z,5.30
2017-11-18T12:38:14.409Z,6.10
2017-11-18T12:40:41.933Z,6.60
2017-11-18T12:43:09.492Z,6.03
2017-11-18T12:45:37.012Z,5.00
2017-11-18T12:48:04.539Z,6.20
2017-11-18T12:50:32.051Z,6.50
2017-11-18T12:53:00.368Z,5.60
2017-11-18T12:55:27.909Z,7.03
2017-11-18T12:57:55.431Z,5.53
2017-11-18T13:00:23.720Z,8.73
2017-11-18T13:02:52.022Z,6.40
2017-11-18T13:05:19.584Z,5.37
2017-11-18T13:07:47.126Z,7.47
2017-11-18T13:10:14.634Z,6.87
2017-11-18T13:12:42.175Z,7.57
2017-11-18T13:15:09.702Z,7.60
2017-11-18T13:17:37.221Z,8.57
2017-11-18T13:20:04.789Z,7.17
2017-11-18T13:22:33.120Z,8.47
2017-11-18T13:25:00.627Z,9.10
2017-11-18T13:27:28.198Z,7.53
2017-11-18T13:29:56.606Z,8.17
2017-11-18T13:32:24.174Z,9.93
2017-11-18T13:34:51.687Z,8.50
2017-11-18T13:37:19.937Z,9.57
2017-11-18T13:39:47.517Z,10.67
2017-11-18T13:42:15.078Z,7.97
2017-11-18T13:44:43.359Z,9.43
2017-11-18T13:47:11.024Z,8.27
2017-11-18T13:49:39.319Z,11.73
2017-11-18T13:52:06.870Z,8.80
2017-11-18T13:54:34.370Z,8.80
2017-11-18T13:57:01.879Z,9.00
2017-11-18T13:59:29.559Z,8.40
2017-11-18T14:01:57.121Z,9.43
2017-11-18T14:04:24.651Z,9.00
2017-11-18T14:06:52.926Z,9.30
2017-11-18T14:09:20.469Z,10.93
2017-11-18T14:11:48.871Z,8.87
2017-11-18T14:14:16.436Z,10.20
2017-11-18T14:16:43.945Z,9.67
2017-11-18T14:19:12.983Z,11.80
2017-11-18T14:21:40.500Z,12.60
2017-11-18T14:24:08.102Z,10.20
2017-11-18T14:26:35.620Z,14.60
2017-11-18T14:29:03.158Z,10.33
2017-11-18T14:31:30.664Z,14.27
2017-11-18T14:33:58.179Z,14.00
2017-11-18T14:36:26.484Z,13.43
2017-11-18T14:38:54.795Z,13.43
2017-11-18T14:41:22.340Z,13.37
2017-11-18T14:43:49.898Z,8.63
2017-11-18T14:46:17.425Z,9.53
2017-11-18T14:48:44.926Z,13.40
2017-11-18T14:51:12.481Z,9.60
2017-11-18T14:53:40.037Z,11.50
2017-11-18T14:56:07.562Z,11.40
2017-11-18T14:58:35.885Z,16.77
2017-11-18T15:01:03.394Z,12.17
2017-11-18T15:03:31.671Z,8.47
2017-11-18T15:05:59.981Z,9.57
2017-11-18T15:08:27.502Z,14.30
2017-11-18T15:10:55.800Z,7.57
2017-11-18T15:13:23.306Z,9.77
2017-11-18T15:15:54.764Z,7.33
2017-11-18T15:18:27.925Z,9.10
2017-11-18T15:21:01.143Z,9.00
2017-11-18T15:23:34.339Z,10.50
2017-11-18T15:26:07.578Z,18.13
2017-11-18T15:28:40.733Z,8.47
2017-11-18T15:31:13.768Z,8.53
2017-11-18T15:33:59.957Z,8.97
2017-11-18T15:39:27.951Z,9.67
2017-11-18T15:41:55.496Z,7.57
2017-11-18T15:44:24.792Z,9.20
2017-11-18T15:46:58.051Z,7.83
2017-11-18T15:52:32.481Z,9.10
2017-11-18T15:55:00.635Z,7.97
2017-11-18T15:57:28.177Z,11.47
2017-11-18T15:59:56.286Z,9.50
2017-11-18T16:02:27.355Z,9.40
2017-11-18T16:05:00.491Z,10.37
2017-11-18T16:07:28.068Z,9.20
2017-11-18T16:09:55.563Z,7.03
2017-11-18T16:12:23.066Z,10.23
2017-11-18T16:14:50.600Z,8.40
2017-11-18T16:17:18.222Z,9.53
2017-11-18T16:19:46.532Z,11.80
2017-11-18T16:22:14.050Z,9.80
2017-11-18T16:24:42.381Z,10.00
2017-11-18T16:27:09.874Z,8.20
2017-11-18T16:29:37.454Z,9.50
2017-11-18T16:32:05.798Z,11.10
2017-11-18T16:34:33.310Z,9.50
2017-11-18T16:37:00.853Z,11.10
2017-11-18T16:39:28.372Z,9.13
2017-11-18T16:41:55.995Z,9.13
2017-11-18T16:44:23.534Z,8.40
2017-11-18T16:46:51.033Z,10.70
2017-11-18T16:49:18.591Z,9.00
2017-11-18T16:51:46.104Z,8.93
2017-11-18T16:54:13.624Z,12.13
2017-11-18T16:56:41.150Z,11.03
2017-11-18T16:59:08.662Z,6.17
2017-11-18T17:01:36.978Z,8.07
2017-11-18T17:04:04.497Z,10.00
2017-11-18T17:06:32.818Z,7.30
2017-11-18T17:09:00.328Z,7.43
2017-11-18T17:11:28.610Z,7.37
2017-11-18T17:13:57.002Z,6.87
2017-11-18T17:16:24.529Z,8.97
2017-11-18T17:18:52.117Z,6.43
2017-11-18T17:21:19.650Z,7.63
2017-11-18T17:23:47.187Z,7.50
2017-11-18T17:26:14.716Z,9.50
2017-11-18T17:28:42.237Z,7.90
2017-11-18T17:31:10.569Z,8.47
2017-11-18T17:33:39.021Z,6.37
2017-11-18T17:36:06.960Z,8.90
2017-11-18T17:38:35.259Z,7.73
2017-11-18T17:41:02.777Z,10.40
2017-11-18T17:43:31.201Z,13.20
2017-11-18T17:45:58.747Z,8.60
2017-11-18T17:48:27.078Z,8.57
2017-11-18T17:50:54.590Z,9.20
2017-11-18T17:53:22.100Z,7.20
2017-11-18T17:55:49.667Z,8.57
2017-11-18T17:58:17.947Z,13.70
2017-11-18T18:00:46.258Z,8.80
2017-11-18T18:03:13.815Z,6.73
2017-11-18T18:05:41.380Z,6.10
2017-11-18T18:08:08.908Z,7.60
2017-11-18T18:10:37.211Z,7.50
2017-11-18T18:13:04.774Z,7.87
2017-11-18T18:15:32.285Z,8.23
2017-11-18T18:17:59.783Z,8.13
2017-11-18T18:20:27.320Z,10.50
2017-11-18T18:22:55.594Z,8.73
2017-11-18T18:25:23.140Z,11.60
2017-11-18T18:27:51.407Z,11.30
2017-11-18T18:30:19.715Z,7.43
2017-11-18T18:32:47.237Z,11.17
2017-11-18T18:35:14.825Z,11.33
2017-11-18T18:37:42.416Z,5.83
2017-11-18T18:40:09.927Z,10.47
2017-11-18T18:42:38.259Z,9.20
2017-11-18T18:45:05.761Z,9.50
2017-11-18T18:47:33.270Z,7.27
2017-11-18T18:50:00.822Z,7.60
2017-11-18T18:52:28.385Z,8.97
2017-11-18T18:54:55.951Z,8.77
2017-11-18T18:57:23.451Z,6.93
2017-11-18T18:59:51.765Z,5.67
2017-11-18T19:02:19.265Z,7.50
2017-11-18T19:04:46.895Z,14.17
2017-11-18T19:07:14.431Z,8.40
2017-11-18T19:09:42.009Z,6.87
2017-11-18T19:12:09.586Z,6.87
2017-11-18T19:14:37.117Z,7.17
2017-11-18T19:17:04.672Z,7.60
2017-11-18T19:19:32.225Z,7.53
2017-11-18T19:21:59.722Z,10.20
2017-11-18T19:24:27.247Z,8.60
2017-11-18T19:26:54.807Z,7.23
2017-11-18T19:29:22.341Z,7.60
2017-11-18T19:31:49.912Z,5.87
2017-11-18T19:34:17.475Z,7.80
2017-11-18T19:36:45.038Z,6.63
2017-11-18T19:39:12.578Z,6.30
2017-11-18T19:41:40.122Z,6.67
2017-11-18T19:44:08.422Z,9.37
2017-11-18T19:46:35.983Z,7.40
2017-11-18T19:49:03.497Z,9.13
2017-11-18T19:51:31.044Z,8.37
2017-11-18T19:53:58.613Z,6.57
2017-11-18T19:56:26.927Z,6.63
2017-11-18T19:58:54.434Z,5.57
2017-11-18T20:01:22.001Z,4.43
2017-11-18T20:03:49.507Z,4.97
2017-11-18T20:06:17.016Z,5.50
2017-11-18T20:08:44.555Z,6.80
2017-11-18T20:11:12.082Z,5.23
2017-11-18T20:13:39.630Z,9.10
2017-11-18T20:16:07.142Z,5.27
2017-11-18T20:18:34.656Z,6.40
2017-11-18T20:21:02.208Z,5.07
2017-11-18T20:23:29.747Z,7.40
2017-11-18T20:25:57.278Z,7.87
2017-11-18T20:28:24.787Z,7.37
2017-11-18T20:30:52.351Z,6.27
2017-11-18T20:33:19.870Z,7.60
2017-11-18T20:35:48.205Z,6.10
2017-11-18T20:38:15.719Z,7.40
2017-11-18T20:40:43.314Z,7.53
2017-11-18T20:43:10.848Z,7.27
2017-11-18T20:45:38.417Z,8.60
2017-11-18T20:48:05.980Z,6.30
2017-11-18T20:50:33.505Z,9.60
2017-11-18T20:53:01.020Z,8.40
2017-11-18T20:55:28.553Z,8.63
2017-11-18T20:57:56.079Z,6.80
2017-11-18T21:00:23.623Z,6.53
2017-11-18T21:02:51.918Z,9.70
2017-11-18T21:05:19.446Z,6.20
2017-11-18T21:07:47.745Z,7.10
2017-11-18T21:10:16.067Z,7.30
2017-11-18T21:12:43.583Z,5.63
2017-11-18T21:15:11.111Z,6.50
2017-11-18T21:17:38.653Z,8.13
2017-11-18T21:20:06.183Z,8.20
2017-11-18T21:22:33.713Z,7.87
2017-11-18T21:25:01.241Z,7.60
2017-11-18T21:27:28.799Z,8.00
2017-11-18T21:29:56.308Z,7.43
2017-11-18T21:32:23.879Z,7.50
2017-11-18T21:34:51.477Z,7.70
2017-11-18T21:37:19.031Z,7.10
2017-11-18T21:39:46.543Z,10.93
2017-11-18T21:42:14.052Z,7.30
2017-11-18T21:44:41.646Z,8.20
2017-11-18T21:47:09.183Z,6.03
2017-11-18T21:49:36.759Z,9.47
2017-11-18T21:52:04.314Z,7.47
2017-11-18T21:54:32.631Z,8.60
2017-11-18T21:57:00.200Z,7.13
2017-11-18T21:59:27.713Z,7.73
2017-11-18T22:01:55.224Z,5.50
2017-11-18T22:04:22.774Z,6.00
2017-11-18T22:06:50.283Z,6.63
2017-11-18T22:09:17.831Z,10.07
2017-11-18T22:11:45.422Z,11.83
2017-11-18T22:14:12.961Z,6.60
2017-11-18T22:16:40.504Z,7.10
2017-11-18T22:19:08.789Z,11.60
2017-11-18T22:21:36.330Z,5.20
2017-11-18T22:24:04.641Z,7.63
2017-11-18T22:26:32.206Z,7.13
2017-11-18T22:28:59.737Z,12.13
2017-11-18T22:31:27.335Z,7.63
2017-11-18T22:33:54.842Z,6.13
2017-11-18T22:36:23.164Z,6.13
2017-11-18T22:38:50.713Z,6.40
2017-11-18T22:41:18.247Z,5.13
2017-11-18T22:43:45.822Z,7.83
2017-11-18T22:46:13.327Z,6.13
2017-11-18T22:48:40.833Z,7.27
2017-11-18T22:51:08.365Z,9.57
2017-11-18T22:53:36.642Z,7.10
2017-11-18T22:56:04.981Z,5.10
2017-11-18T22:58:32.487Z,5.83
2017-11-18T23:01:00.057Z,7.23
2017-11-18T23:03:27.621Z,5.40
2017-11-18T23:05:55.154Z,6.90
2017-11-18T23:08:23.667Z,5.47
2017-11-18T23:10:51.169Z,7.43
2017-11-18T23:13:18.680Z,9.43
2017-11-18T23:15:46.219Z,6.80
2017-11-18T23:18:13.728Z,10.90
2017-11-18T23:20:41.354Z,10.20
2017-11-18T23:23:08.889Z,10.13
2017-11-18T23:25:36.647Z,6.90
2017-11-18T23:28:04.216Z,7.30
2017-11-18T23:30:31.891Z,5.73
2017-11-18T23:32:59.397Z,7.97
2017-11-18T23:35:28.581Z,7.07
2017-11-18T23:37:56.947Z,6.00
2017-11-18T23:40:24.522Z,5.97
2017-11-18T23:42:52.054Z,5.13
2017-11-18T23:45:19.774Z,7.00
2017-11-18T23:47:48.059Z,5.40
2017-11-18T23:50:15.721Z,5.70
2017-11-18T23:52:43.244Z,7.30
2017-11-18T23:55:10.764Z,5.10
2017-11-18T23:57:38.350Z,4.97
